Brookfield, Wisconsin
Current Conditions -  °F | °C
As of 11:45 AM on Tuesday 21 Oct 2014 (Local Time) from KUES Reporting Station
Overcast Overcast  
Wind Chill: 40°   Ceiling: 2300
Heat Index: 45°   Visibility: 10mi
Dew Point: 37°   Wind: 9mph
Humidity: 76%   Direction: 360°N
Pressure: 30.22"   Gusts: NA
Location:  43.06°N, 88.13°W
Report Text: KUES 211645Z 36008KT 10SM BKN023 OVC029 07/03 A3022
Loading
Personal Weather Stations






























Interactive Weather Map New forecast layout! Learn more

10-Day Weather Forecast

Advertisements
Track Severe Weather on mobile